Lagrange, Wyoming
Current Conditions -  °F | °C
As of 4:53 AM on Friday 28 Nov 2014 (Local Time) from KTOR Reporting Station
Clear Clear  
Wind Chill: 50°   Ceiling: Unl
Heat Index: 50°   Visibility: 10mi
Dew Point: 21°   Wind: 8mph
Humidity: 32%   Direction: 240°WSW
Pressure: 29.85"   Gusts: NA
Location:  41.63°N, 104.35°W
Report Text: KTOR 281153Z AUTO 24007KT 200V260 10SM CLR 10/M06 A2985 RMK AO2 SLP089 T01001061 10122 20050 56012 $
Loading
Personal Weather Stations






























Interactive Weather Map New forecast layout! Learn more

10-Day Weather Forecast

Advertisements
Track Severe Weather on mobile